createdAt,value
2018-05-15T00:00:57.786Z,6.50
2018-05-15T00:03:24.633Z,6.40
2018-05-15T00:05:51.583Z,6.50
2018-05-15T00:08:18.537Z,6.40
2018-05-15T00:10:45.488Z,6.40
2018-05-15T00:13:12.441Z,6.40
2018-05-15T00:15:39.293Z,6.30
2018-05-15T00:18:06.134Z,6.10
2018-05-15T00:20:32.990Z,6.00
2018-05-15T00:22:59.939Z,6.00
2018-05-15T00:25:26.887Z,6.00
2018-05-15T00:27:53.841Z,6.00
2018-05-15T00:30:20.685Z,5.90
2018-05-15T00:32:47.535Z,5.90
2018-05-15T00:35:14.483Z,5.80
2018-05-15T00:37:41.437Z,5.70
2018-05-15T00:40:08.593Z,5.70
2018-05-15T00:42:35.440Z,5.70
2018-05-15T00:45:02.289Z,5.80
2018-05-15T00:47:29.237Z,5.80
2018-05-15T00:49:56.088Z,5.80
2018-05-15T00:52:23.039Z,5.80
2018-05-15T00:57:20.934Z,5.80
2018-05-15T00:59:48.502Z,5.80
2018-05-15T01:02:16.776Z,5.80
2018-05-15T01:04:43.633Z,5.80
2018-05-15T01:07:10.577Z,5.80
2018-05-15T01:09:37.840Z,5.80
2018-05-15T01:12:04.789Z,5.70
2018-05-15T01:14:31.635Z,5.70
2018-05-15T01:16:58.893Z,5.70
2018-05-15T01:19:26.256Z,5.70
2018-05-15T01:21:53.207Z,5.70
2018-05-15T01:24:20.156Z,5.70
2018-05-15T01:26:47.003Z,5.60
2018-05-15T01:29:13.944Z,5.50
2018-05-15T01:31:41.011Z,5.50
2018-05-15T01:34:07.782Z,5.50
2018-05-15T01:36:34.807Z,5.40
2018-05-15T01:39:01.553Z,5.40
2018-05-15T01:41:28.914Z,5.40
2018-05-15T01:43:56.101Z,5.30
2018-05-15T01:46:23.534Z,5.10
2018-05-15T01:48:50.895Z,5.20
2018-05-15T01:51:17.845Z,5.20
2018-05-15T01:53:44.896Z,5.20
2018-05-15T01:56:11.747Z,5.10
2018-05-15T01:58:38.700Z,5.20
2018-05-15T02:01:06.780Z,5.10
2018-05-15T02:03:34.791Z,5.10
2018-05-15T02:06:01.800Z,5.10
2018-05-15T02:08:28.752Z,5.10
2018-05-15T02:10:55.887Z,4.90
2018-05-15T02:13:25.225Z,4.90
2018-05-15T02:15:54.156Z,4.90
2018-05-15T02:18:22.500Z,4.90
2018-05-15T02:20:49.851Z,5.00
2018-05-15T02:23:17.008Z,5.00
2018-05-15T02:25:43.856Z,5.00
2018-05-15T02:28:10.813Z,5.00
2018-05-15T02:30:37.654Z,5.00
2018-05-15T02:33:04.505Z,4.90
2018-05-15T02:35:31.461Z,5.00
2018-05-15T02:37:58.303Z,4.90
2018-05-15T02:40:25.156Z,4.90
2018-05-15T02:42:51.899Z,4.80
2018-05-15T02:45:18.752Z,4.80
2018-05-15T02:47:45.598Z,4.80
2018-05-15T02:50:12.446Z,4.80
2018-05-15T02:52:39.305Z,4.90
2018-05-15T02:55:06.245Z,4.80
2018-05-15T02:57:33.093Z,4.80
2018-05-15T02:59:59.942Z,4.90
2018-05-15T03:02:27.508Z,4.90
2018-05-15T03:04:54.460Z,4.90
2018-05-15T03:07:21.306Z,4.90
2018-05-15T03:09:48.051Z,4.90
2018-05-15T03:12:15.212Z,5.00
2018-05-15T03:14:42.161Z,5.00
2018-05-15T03:17:09.110Z,5.00
2018-05-15T03:19:36.264Z,5.00
2018-05-15T03:22:04.037Z,5.00
2018-05-15T03:24:30.988Z,5.10
2018-05-15T03:26:58.141Z,5.10
2018-05-15T03:29:24.990Z,5.20
2018-05-15T03:31:51.838Z,5.20
2018-05-15T03:34:18.891Z,5.20
2018-05-15T03:36:45.640Z,5.40
2018-05-15T03:39:12.488Z,5.50
2018-05-15T03:41:39.442Z,5.50
2018-05-15T03:44:06.185Z,5.60
2018-05-15T03:46:33.137Z,5.70
2018-05-15T03:48:59.989Z,5.80
2018-05-15T03:51:26.732Z,5.80
2018-05-15T03:53:53.583Z,5.90
2018-05-15T03:56:20.938Z,5.90
2018-05-15T03:58:47.787Z,5.90
2018-05-15T04:01:26.917Z,6.20
2018-05-15T04:04:06.148Z,6.70
2018-05-15T04:06:45.377Z,7.50
2018-05-15T04:09:12.125Z,8.20
2018-05-15T04:11:39.484Z,8.60
2018-05-15T04:14:06.438Z,8.90
2018-05-15T04:16:33.595Z,9.30
2018-05-15T04:19:00.544Z,9.70
2018-05-15T04:21:27.253Z,10.50
2018-05-15T04:23:54.958Z,14.90
2018-05-15T04:26:21.908Z,14.70
2018-05-15T04:28:48.756Z,16.90
2018-05-15T04:31:15.615Z,17.30
2018-05-15T04:33:42.558Z,16.90
2018-05-15T04:36:09.404Z,16.60
2018-05-15T04:38:36.559Z,17.80
2018-05-15T04:41:03.514Z,18.80
2018-05-15T04:43:30.726Z,19.30
2018-05-15T04:45:58.335Z,21.20
2018-05-15T04:48:25.387Z,21.20
2018-05-15T04:50:52.161Z,23.00
2018-05-15T04:53:18.983Z,24.20
2018-05-15T04:55:46.022Z,24.50
2018-05-15T04:58:12.885Z,26.40
2018-05-15T05:00:39.732Z,27.40
2018-05-15T05:03:06.586Z,28.00
2018-05-15T05:05:33.534Z,27.50
2018-05-15T05:08:00.482Z,27.50
2018-05-15T05:10:27.334Z,28.20
2018-05-15T05:12:54.285Z,28.80
2018-05-15T05:15:21.131Z,29.40
2018-05-15T05:17:47.877Z,29.80
2018-05-15T05:20:15.446Z,30.30
2018-05-15T05:22:43.007Z,31.20
2018-05-15T05:25:09.960Z,31.20
2018-05-15T05:27:37.217Z,31.50
2018-05-15T05:30:04.173Z,30.90
2018-05-15T05:32:31.121Z,32.00
2018-05-15T05:34:59.911Z,33.50
2018-05-15T05:37:26.863Z,33.60
2018-05-15T05:39:53.712Z,34.00
2018-05-15T05:42:20.664Z,35.20
2018-05-15T05:44:47.511Z,35.90
2018-05-15T05:47:14.464Z,35.70
2018-05-15T05:49:41.413Z,33.80
2018-05-15T05:52:08.295Z,34.20
2018-05-15T05:54:35.934Z,36.00
2018-05-15T05:57:02.778Z,35.90
2018-05-15T05:59:29.830Z,37.10
2018-05-15T06:01:56.784Z,37.20
2018-05-15T06:04:23.528Z,37.30
2018-05-15T06:06:50.478Z,37.40
2018-05-15T06:09:17.228Z,35.80
2018-05-15T06:11:44.179Z,35.70
2018-05-15T06:14:11.030Z,36.70
2018-05-15T06:16:37.876Z,36.70
2018-05-15T06:19:04.823Z,38.00
2018-05-15T06:21:31.774Z,38.00
2018-05-15T06:23:58.728Z,39.10
2018-05-15T06:26:25.472Z,38.60
2018-05-15T06:28:52.323Z,38.20
2018-05-15T06:31:19.171Z,39.00
2018-05-15T06:33:46.120Z,40.10
2018-05-15T06:36:12.972Z,38.40
2018-05-15T06:38:39.925Z,39.30
2018-05-15T06:41:06.772Z,41.10
2018-05-15T06:43:33.625Z,39.70
2018-05-15T06:46:00.573Z,40.00
2018-05-15T06:48:27.416Z,41.10
2018-05-15T06:50:54.266Z,39.30
2018-05-15T06:53:20.983Z,38.30
2018-05-15T06:55:48.681Z,38.40
2018-05-15T06:58:15.528Z,38.40
2018-05-15T07:00:42.481Z,38.60
2018-05-15T07:03:09.337Z,39.10
2018-05-15T07:05:36.278Z,39.00
2018-05-15T07:08:03.898Z,42.40
2018-05-15T07:10:31.510Z,42.00
2018-05-15T07:12:58.469Z,42.00
2018-05-15T07:15:25.311Z,41.60
2018-05-15T07:17:52.161Z,41.30
2018-05-15T07:20:19.113Z,40.00
2018-05-15T07:22:45.963Z,38.60
2018-05-15T07:25:12.809Z,37.90
2018-05-15T07:27:39.656Z,38.20
2018-05-15T07:30:06.510Z,38.70
2018-05-15T07:32:33.356Z,38.10
2018-05-15T07:35:00.307Z,38.10
2018-05-15T07:37:27.052Z,38.40
2018-05-15T07:39:53.900Z,38.20
2018-05-15T07:42:20.748Z,38.40
2018-05-15T07:44:47.598Z,37.90
2018-05-15T07:47:14.345Z,38.00
2018-05-15T07:49:41.295Z,37.90
2018-05-15T07:52:08.145Z,38.70
2018-05-15T07:54:35.094Z,39.10
2018-05-15T07:57:01.948Z,39.30
2018-05-15T07:59:29.102Z,39.00
2018-05-15T08:01:55.952Z,39.00
2018-05-15T08:04:22.977Z,39.00
2018-05-15T08:06:50.567Z,39.80
2018-05-15T08:09:18.336Z,40.50
2018-05-15T08:11:45.081Z,40.40
2018-05-15T08:14:12.031Z,41.90
2018-05-15T08:16:38.812Z,40.80
2018-05-15T08:19:07.060Z,39.60
2018-05-15T08:21:33.907Z,39.60
2018-05-15T08:24:00.602Z,38.20
2018-05-15T08:26:28.938Z,39.40
2018-05-15T08:28:55.885Z,39.40
2018-05-15T08:31:22.841Z,39.30
2018-05-15T08:33:49.789Z,40.90
2018-05-15T08:36:16.640Z,40.00
2018-05-15T08:38:43.590Z,39.90
2018-05-15T08:41:10.538Z,39.10
2018-05-15T08:43:37.389Z,40.30
2018-05-15T08:46:04.239Z,38.20
2018-05-15T08:48:31.086Z,36.40
2018-05-15T08:50:58.242Z,35.70
2018-05-15T08:53:25.089Z,35.70
2018-05-15T08:55:51.938Z,34.60
2018-05-15T08:58:19.196Z,33.60
2018-05-15T09:00:46.047Z,32.60
2018-05-15T09:03:12.996Z,31.70
2018-05-15T09:05:39.944Z,31.80
2018-05-15T09:08:06.899Z,31.30
2018-05-15T09:10:33.747Z,31.50
2018-05-15T09:13:00.595Z,31.20
2018-05-15T09:15:27.445Z,30.90
2018-05-15T09:17:54.290Z,31.30
2018-05-15T09:20:21.144Z,31.10
2018-05-15T09:22:48.090Z,31.30
2018-05-15T09:25:15.045Z,31.20
2018-05-15T09:27:41.995Z,31.00
2018-05-15T09:30:08.945Z,31.20
2018-05-15T09:32:35.793Z,30.30
2018-05-15T09:35:02.642Z,30.00
2018-05-15T09:37:29.590Z,29.90
2018-05-15T09:39:56.545Z,29.40
2018-05-15T09:42:23.288Z,29.30
2018-05-15T09:44:50.548Z,29.50
2018-05-15T09:47:17.398Z,29.10
2018-05-15T09:49:44.144Z,28.50
2018-05-15T09:52:10.999Z,28.50
2018-05-15T09:54:37.942Z,28.20
2018-05-15T09:57:04.690Z,28.30
2018-05-15T09:59:31.945Z,28.60
2018-05-15T10:01:58.698Z,28.50
2018-05-15T10:04:25.646Z,28.80
2018-05-15T10:06:52.492Z,28.90
2018-05-15T10:09:19.444Z,28.60
2018-05-15T10:11:46.607Z,29.00
2018-05-15T10:14:13.489Z,28.80
2018-05-15T10:16:40.295Z,29.00
2018-05-15T10:19:07.148Z,29.10
2018-05-15T10:21:40.951Z,29.30
2018-05-15T10:24:08.107Z,28.70
2018-05-15T10:26:34.958Z,28.60
2018-05-15T10:29:01.909Z,28.60
2018-05-15T10:31:28.861Z,28.70
2018-05-15T10:33:55.810Z,29.00
2018-05-15T10:36:22.761Z,28.90
2018-05-15T10:38:49.713Z,28.80
2018-05-15T10:41:16.661Z,29.00
2018-05-15T10:43:43.513Z,29.30
2018-05-15T10:46:10.256Z,28.90
2018-05-15T10:48:37.311Z,28.40
2018-05-15T10:51:04.160Z,27.80
2018-05-15T10:53:31.109Z,27.30
2018-05-15T10:55:57.960Z,27.10
2018-05-15T10:58:24.911Z,27.50
2018-05-15T11:00:51.657Z,27.10
2018-05-15T11:03:18.504Z,27.10
2018-05-15T11:05:45.356Z,27.50
2018-05-15T11:08:19.363Z,27.90
2018-05-15T11:10:46.318Z,27.80
2018-05-15T11:13:13.373Z,27.80
2018-05-15T11:15:40.525Z,28.00
2018-05-15T11:18:19.656Z,28.20
2018-05-15T11:20:59.092Z,28.50
2018-05-15T11:23:38.222Z,28.70
2018-05-15T11:26:05.170Z,28.50
2018-05-15T11:28:32.019Z,28.70
2018-05-15T11:30:58.973Z,28.70
2018-05-15T11:33:25.816Z,28.80
2018-05-15T11:35:52.803Z,28.70
2018-05-15T11:38:19.721Z,28.70
2018-05-15T11:40:46.571Z,28.50
2018-05-15T11:43:13.417Z,27.90
2018-05-15T11:45:40.472Z,27.80
2018-05-15T11:48:07.778Z,27.80
2018-05-15T11:50:35.110Z,28.00
2018-05-15T11:53:01.703Z,27.90
2018-05-15T11:55:28.683Z,27.70
2018-05-15T11:57:55.691Z,27.70
2018-05-15T12:00:23.200Z,27.50
2018-05-15T12:02:50.007Z,27.50
2018-05-15T12:05:16.793Z,27.40
2018-05-15T12:07:43.643Z,27.20
2018-05-15T12:10:10.595Z,27.10
2018-05-15T12:12:37.442Z,27.30
2018-05-15T12:15:05.286Z,27.40
2018-05-15T12:17:32.162Z,27.40
2018-05-15T12:19:59.117Z,27.50
2018-05-15T12:22:26.063Z,27.50
2018-05-15T12:24:53.018Z,27.60
2018-05-15T12:27:19.765Z,27.60
2018-05-15T12:29:46.695Z,27.40
2018-05-15T12:32:13.458Z,27.40
2018-05-15T12:34:40.411Z,27.60
2018-05-15T12:37:07.160Z,27.70
2018-05-15T12:39:34.314Z,27.70
2018-05-15T12:42:01.319Z,27.70
2018-05-15T12:44:28.008Z,28.00
2018-05-15T12:46:54.860Z,27.60
2018-05-15T12:49:22.015Z,27.60
2018-05-15T12:51:48.967Z,27.30
2018-05-15T12:54:15.937Z,27.40
2018-05-15T12:56:43.276Z,27.40
2018-05-15T12:59:10.227Z,27.40
2018-05-15T13:01:37.081Z,27.70
2018-05-15T13:04:03.922Z,27.60
2018-05-15T13:06:30.877Z,27.40
2018-05-15T13:08:59.522Z,27.40
2018-05-15T13:11:26.414Z,27.50
2018-05-15T13:13:53.262Z,27.50
2018-05-15T13:16:21.235Z,27.50
2018-05-15T13:18:48.392Z,27.50
2018-05-15T13:21:15.345Z,27.70
2018-05-15T13:23:42.297Z,27.60
2018-05-15T13:26:09.244Z,27.40
2018-05-15T13:28:36.199Z,27.30
2018-05-15T13:31:03.557Z,27.30
2018-05-15T13:33:31.328Z,27.00
2018-05-15T13:35:58.176Z,27.10
2018-05-15T13:38:25.124Z,26.90
2018-05-15T13:40:51.973Z,27.00
2018-05-15T13:43:19.231Z,26.80
2018-05-15T13:45:47.003Z,26.90
2018-05-15T13:48:13.954Z,26.70
2018-05-15T13:50:40.903Z,26.60
2018-05-15T13:53:07.857Z,26.70
2018-05-15T13:55:35.340Z,26.50
2018-05-15T13:58:02.268Z,26.60
2018-05-15T14:00:29.320Z,26.70
2018-05-15T14:02:56.273Z,26.70
2018-05-15T14:05:23.225Z,26.80
2018-05-15T14:07:50.079Z,27.00
2018-05-15T14:10:17.229Z,27.10
2018-05-15T14:12:44.179Z,27.00
2018-05-15T14:15:11.131Z,27.10
2018-05-15T14:17:38.187Z,26.80
2018-05-15T14:20:05.338Z,26.70
2018-05-15T14:22:32.187Z,26.70
2018-05-15T14:24:59.140Z,26.80
2018-05-15T14:27:26.088Z,26.60
2018-05-15T14:29:52.940Z,26.80
2018-05-15T14:32:19.786Z,26.90
2018-05-15T14:34:46.737Z,26.70
2018-05-15T14:37:13.520Z,26.40
2018-05-15T14:39:40.331Z,26.40
2018-05-15T14:42:19.664Z,26.40
2018-05-15T14:44:46.634Z,26.50
2018-05-15T14:47:13.391Z,26.70
2018-05-15T14:49:40.870Z,26.70
2018-05-15T14:52:08.801Z,26.90
2018-05-15T14:54:35.752Z,27.00
2018-05-15T14:57:02.710Z,27.10
2018-05-15T14:59:29.654Z,26.90
2018-05-15T15:01:56.502Z,27.00
2018-05-15T15:04:23.453Z,26.60
2018-05-15T15:06:50.197Z,26.50
2018-05-15T15:09:17.048Z,26.10
2018-05-15T15:11:44.205Z,25.90
2018-05-15T15:14:11.060Z,25.90
2018-05-15T15:16:38.323Z,26.10
2018-05-15T15:19:05.263Z,26.20
2018-05-15T15:21:32.219Z,26.10
2018-05-15T15:23:59.061Z,26.00
2018-05-15T15:26:26.114Z,26.00
2018-05-15T15:28:53.067Z,25.90
2018-05-15T15:31:19.912Z,25.70
2018-05-15T15:33:47.068Z,25.70
2018-05-15T15:36:14.530Z,25.40
2018-05-15T15:38:41.483Z,25.50
2018-05-15T15:41:08.741Z,25.40
2018-05-15T15:43:35.746Z,25.50
2018-05-15T15:46:03.463Z,25.60
2018-05-15T15:48:30.206Z,25.50
2018-05-15T15:50:57.059Z,25.40
2018-05-15T15:53:24.109Z,25.30
2018-05-15T15:55:51.386Z,25.20
2018-05-15T15:58:18.627Z,25.20
2018-05-15T16:00:45.576Z,25.00
2018-05-15T16:03:12.528Z,24.90
2018-05-15T16:05:39.479Z,24.70
2018-05-15T16:08:06.633Z,24.70
2018-05-15T16:10:35.201Z,24.60
2018-05-15T16:13:03.194Z,24.30
2018-05-15T16:15:30.205Z,24.20
2018-05-15T16:17:56.999Z,24.10
2018-05-15T16:20:23.952Z,24.10
2018-05-15T16:22:57.763Z,24.10
2018-05-15T16:25:24.706Z,24.00
2018-05-15T16:27:51.969Z,24.00
2018-05-15T16:30:19.016Z,23.80
2018-05-15T16:32:45.865Z,23.70
2018-05-15T16:35:12.713Z,23.60
2018-05-15T16:37:39.902Z,23.40
2018-05-15T16:40:06.819Z,23.30
2018-05-15T16:42:34.076Z,23.20
2018-05-15T16:45:00.925Z,23.10
2018-05-15T16:47:27.963Z,23.10
2018-05-15T16:49:54.725Z,23.00
2018-05-15T16:52:21.676Z,23.00
2018-05-15T16:54:49.450Z,23.10
2018-05-15T16:57:16.503Z,23.00
2018-05-15T16:59:43.452Z,22.90
2018-05-15T17:02:10.299Z,22.90
2018-05-15T17:04:37.665Z,22.80
2018-05-15T17:07:04.816Z,22.80
2018-05-15T17:09:33.709Z,22.50
2018-05-15T17:12:00.454Z,22.50
2018-05-15T17:14:27.410Z,22.40
2018-05-15T17:16:54.361Z,22.20
2018-05-15T17:19:21.617Z,22.20
2018-05-15T17:21:48.568Z,22.10
2018-05-15T17:24:15.519Z,22.00
2018-05-15T17:26:42.369Z,21.90
2018-05-15T17:29:09.217Z,21.80
2018-05-15T17:31:36.092Z,21.80
2018-05-15T17:34:04.061Z,21.80
2018-05-15T17:36:30.989Z,21.60
2018-05-15T17:38:59.270Z,21.30
2018-05-15T17:41:26.530Z,21.30
2018-05-15T17:43:53.485Z,21.40
2018-05-15T17:46:20.332Z,21.30
2018-05-15T17:48:47.179Z,21.20
2018-05-15T17:51:14.027Z,21.10
2018-05-15T17:53:40.773Z,20.90
2018-05-15T17:56:07.931Z,20.80
2018-05-15T17:58:34.880Z,20.70
2018-05-15T18:01:01.832Z,20.50
2018-05-15T18:03:29.292Z,20.40
2018-05-15T18:05:56.447Z,20.30
2018-05-15T18:08:24.507Z,20.20
2018-05-15T18:10:51.377Z,19.90
2018-05-15T18:13:18.227Z,19.70
2018-05-15T18:15:45.275Z,19.60
2018-05-15T18:18:12.022Z,19.40
2018-05-15T18:20:38.972Z,19.20
2018-05-15T18:23:05.719Z,19.00
2018-05-15T18:25:34.309Z,18.70
2018-05-15T18:28:01.269Z,18.70
2018-05-15T18:30:29.241Z,18.50
2018-05-15T18:32:56.281Z,18.40
2018-05-15T18:35:24.091Z,18.20
2018-05-15T18:37:51.846Z,18.10
2018-05-15T18:40:18.779Z,18.10
2018-05-15T18:42:45.626Z,18.00
2018-05-15T18:45:12.797Z,17.90
2018-05-15T18:47:40.043Z,17.60
2018-05-15T18:50:06.889Z,17.40
2018-05-15T18:52:33.742Z,17.20
2018-05-15T18:55:00.590Z,16.90
2018-05-15T18:57:27.898Z,16.70
2018-05-15T18:59:54.799Z,16.50
2018-05-15T19:02:21.851Z,16.30
2018-05-15T19:04:49.105Z,16.20
2018-05-15T19:07:16.060Z,16.00
2018-05-15T19:09:43.427Z,15.90
2018-05-15T19:12:11.196Z,15.60
2018-05-15T19:14:38.550Z,15.60
2018-05-15T19:17:07.163Z,15.40
2018-05-15T19:19:34.543Z,15.30
2018-05-15T19:22:02.191Z,14.90
2018-05-15T19:24:29.115Z,14.80
2018-05-15T19:26:56.393Z,14.80
2018-05-15T19:29:23.341Z,14.60
2018-05-15T19:31:52.232Z,14.30
2018-05-15T19:34:24.083Z,14.20
2018-05-15T19:36:57.175Z,14.00
2018-05-15T19:39:30.315Z,13.90
2018-05-15T19:41:58.136Z,13.60
2018-05-15T19:44:24.988Z,13.60
2018-05-15T19:46:51.837Z,13.50
2018-05-15T19:49:18.586Z,13.40
2018-05-15T19:51:45.640Z,13.20
2018-05-15T19:54:12.688Z,13.10
2018-05-15T19:56:39.742Z,13.00
2018-05-15T19:59:06.690Z,12.90
2018-05-15T20:01:33.540Z,13.00
2018-05-15T20:04:00.491Z,12.60
2018-05-15T20:06:27.544Z,12.50
2018-05-15T20:08:54.770Z,12.50
2018-05-15T20:11:22.865Z,12.40
2018-05-15T20:13:49.628Z,12.30
2018-05-15T20:16:16.490Z,12.20
2018-05-15T20:18:44.579Z,12.00
2018-05-15T20:21:11.811Z,11.90
2018-05-15T20:23:38.918Z,11.90
2018-05-15T20:26:06.640Z,11.90
2018-05-15T20:28:33.993Z,11.90
2018-05-15T20:31:00.839Z,11.90
2018-05-15T20:33:27.744Z,11.90
2018-05-15T20:35:54.947Z,11.90
2018-05-15T20:38:21.897Z,11.80
2018-05-15T20:40:49.463Z,11.70
2018-05-15T20:43:17.315Z,11.60
2018-05-15T20:45:46.129Z,11.50
2018-05-15T20:48:13.798Z,11.40
2018-05-15T20:50:40.745Z,11.40
2018-05-15T20:53:09.139Z,11.40
2018-05-15T20:55:37.413Z,11.40
2018-05-15T20:58:04.362Z,11.30
2018-05-15T21:00:31.192Z,11.30
2018-05-15T21:02:59.187Z,11.10
2018-05-15T21:05:26.136Z,11.00
2018-05-15T21:07:52.985Z,11.00
2018-05-15T21:10:19.752Z,11.00
2018-05-15T21:12:48.017Z,10.90
2018-05-15T21:15:15.053Z,10.90
2018-05-15T21:17:43.144Z,10.80
2018-05-15T21:20:09.833Z,10.80
2018-05-15T21:22:36.638Z,10.70
2018-05-15T21:25:04.303Z,10.60
2018-05-15T21:27:31.973Z,10.60
2018-05-15T21:30:01.289Z,10.60
2018-05-15T21:32:35.491Z,10.50
2018-05-15T21:35:02.341Z,10.50
2018-05-15T21:37:29.292Z,10.40
2018-05-15T21:39:56.241Z,10.40
2018-05-15T21:42:24.288Z,10.30
2018-05-15T21:44:51.579Z,10.30
2018-05-15T21:47:18.560Z,10.20
2018-05-15T21:49:46.910Z,10.10
2018-05-15T21:52:13.759Z,10.10
2018-05-15T21:54:41.632Z,9.90
2018-05-15T21:57:08.790Z,9.90
2018-05-15T21:59:35.635Z,9.80
2018-05-15T22:02:04.021Z,9.80
2018-05-15T22:04:30.972Z,9.80
2018-05-15T22:06:57.924Z,9.70
2018-05-15T22:09:24.972Z,9.70
2018-05-15T22:12:03.943Z,9.60
2018-05-15T22:14:44.731Z,9.50
2018-05-15T22:17:24.426Z,9.50
2018-05-15T22:20:04.049Z,9.50
2018-05-15T22:22:30.589Z,9.40
2018-05-15T22:24:57.439Z,9.40
2018-05-15T22:27:24.286Z,9.30
2018-05-15T22:29:51.135Z,9.20
2018-05-15T22:32:18.086Z,9.20
2018-05-15T22:34:45.244Z,9.10
2018-05-15T22:37:11.991Z,9.10
2018-05-15T22:39:38.735Z,9.00
2018-05-15T22:42:05.686Z,9.00
2018-05-15T22:44:32.741Z,9.00
2018-05-15T22:46:59.689Z,8.90
2018-05-15T22:49:26.748Z,8.90
2018-05-15T22:51:53.592Z,8.80
2018-05-15T22:54:20.444Z,8.80
2018-05-15T22:56:47.730Z,8.70
2018-05-15T22:59:15.570Z,8.70
2018-05-15T23:01:42.319Z,8.60
2018-05-15T23:04:09.175Z,8.60
2018-05-15T23:06:36.015Z,8.60
2018-05-15T23:09:02.967Z,8.60
2018-05-15T23:11:29.922Z,8.50
2018-05-15T23:13:57.686Z,8.50
2018-05-15T23:16:24.540Z,8.40
2018-05-15T23:18:51.285Z,8.40
2018-05-15T23:21:18.027Z,8.40
2018-05-15T23:23:44.879Z,8.40
2018-05-15T23:26:11.625Z,8.30
2018-05-15T23:28:38.573Z,8.30
2018-05-15T23:31:12.483Z,8.20
2018-05-15T23:33:39.342Z,8.20
2018-05-15T23:36:06.180Z,8.20
2018-05-15T23:38:32.927Z,8.20
2018-05-15T23:40:59.777Z,8.20
2018-05-15T23:43:26.828Z,8.10
2018-05-15T23:45:53.681Z,8.10
2018-05-15T23:48:20.438Z,8.10
2018-05-15T23:50:47.275Z,8.10
2018-05-15T23:53:14.224Z,8.10
2018-05-15T23:55:41.002Z,8.00
2018-05-15T23:58:07.921Z,8.10
